sensor_id;sensor_type;location;lat;lon;timestamp;pressure;altitude;pressure_sealevel;temperature;humidity
61963;BME280;47927;42.646;23.096;2022-09-03T00:00:08;92173.28;;;18.87;61.74
61963;BME280;47927;42.646;23.096;2022-09-03T00:08:16;92187.69;;;18.82;61.70
61963;BME280;47927;42.646;23.096;2022-09-03T00:13:16;92168.75;;;18.87;61.27
61963;BME280;47927;42.646;23.096;2022-09-03T00:15:44;92180.34;;;18.74;61.59
61963;BME280;47927;42.646;23.096;2022-09-03T00:18:17;92173.31;;;18.67;61.46
61963;BME280;47927;42.646;23.096;2022-09-03T00:20:57;92170.28;;;18.68;61.76
61963;BME280;47927;42.646;23.096;2022-09-03T00:23:29;92167.38;;;18.63;61.27
61963;BME280;47927;42.646;23.096;2022-09-03T00:26:24;92153.28;;;18.33;62.15
61963;BME280;47927;42.646;23.096;2022-09-03T00:31:35;92148.44;;;18.48;62.07
61963;BME280;47927;42.646;23.096;2022-09-03T00:37:09;92139.97;;;17.81;63.33
61963;BME280;47927;42.646;23.096;2022-09-03T00:39:36;92149.56;;;18.11;62.99
61963;BME280;47927;42.646;23.096;2022-09-03T00:47:40;92152.13;;;18.14;62.88
61963;BME280;47927;42.646;23.096;2022-09-03T00:52:59;92146.72;;;17.82;63.97
61963;BME280;47927;42.646;23.096;2022-09-03T00:55:57;92154.72;;;17.98;63.84
61963;BME280;47927;42.646;23.096;2022-09-03T01:01:19;92153.22;;;17.97;63.93
61963;BME280;47927;42.646;23.096;2022-09-03T01:09:46;92162.25;;;17.76;64.18
61963;BME280;47927;42.646;23.096;2022-09-03T01:34:03;92184.38;;;18.02;63.06
61963;BME280;47927;42.646;23.096;2022-09-03T01:45:35;92194.97;;;17.55;63.48
61963;BME280;47927;42.646;23.096;2022-09-03T01:48:29;92205.38;;;17.86;63.29
61963;BME280;47927;42.646;23.096;2022-09-03T01:59:39;92197.88;;;17.84;62.55
61963;BME280;47927;42.646;23.096;2022-09-03T02:02:16;92199.31;;;17.89;62.68
61963;BME280;47927;42.646;23.096;2022-09-03T02:05:21;92196.91;;;18.18;62.27
61963;BME280;47927;42.646;23.096;2022-09-03T02:10:28;92203.94;;;18.25;61.44
61963;BME280;47927;42.646;23.096;2022-09-03T02:13:03;92205.75;;;18.28;61.52
61963;BME280;47927;42.646;23.096;2022-09-03T02:15:29;92204.66;;;18.25;61.52
61963;BME280;47927;42.646;23.096;2022-09-03T02:18:01;92202.16;;;18.38;61.68
61963;BME280;47927;42.646;23.096;2022-09-03T02:20:28;92201.56;;;18.30;61.40
61963;BME280;47927;42.646;23.096;2022-09-03T02:22:55;92206.75;;;18.34;61.25
61963;BME280;47927;42.646;23.096;2022-09-03T02:25:25;92205.88;;;18.40;61.41
61963;BME280;47927;42.646;23.096;2022-09-03T02:27:54;92208.50;;;18.40;61.34
61963;BME280;47927;42.646;23.096;2022-09-03T02:30:19;92202.84;;;18.42;61.63
61963;BME280;47927;42.646;23.096;2022-09-03T02:32:45;92191.56;;;18.41;61.09
61963;BME280;47927;42.646;23.096;2022-09-03T02:35:10;92193.66;;;18.50;61.05
61963;BME280;47927;42.646;23.096;2022-09-03T02:37:37;92198.22;;;18.46;60.92
61963;BME280;47927;42.646;23.096;2022-09-03T02:40:03;92206.44;;;18.12;61.53
61963;BME280;47927;42.646;23.096;2022-09-03T02:42:34;92210.94;;;18.11;61.82
61963;BME280;47927;42.646;23.096;2022-09-03T02:45:15;92203.25;;;18.20;61.50
61963;BME280;47927;42.646;23.096;2022-09-03T02:47:49;92208.31;;;18.31;61.25
61963;BME280;47927;42.646;23.096;2022-09-03T02:50:17;92203.25;;;18.20;61.76
61963;BME280;47927;42.646;23.096;2022-09-03T02:52:42;92214.63;;;18.17;61.77
61963;BME280;47927;42.646;23.096;2022-09-03T02:55:08;92182.75;;;17.88;62.62
61963;BME280;47927;42.646;23.096;2022-09-03T02:57:34;92209.28;;;18.21;61.83
61963;BME280;47927;42.646;23.096;2022-09-03T02:59:59;92206.28;;;18.19;61.85
61963;BME280;47927;42.646;23.096;2022-09-03T03:02:25;92211.09;;;18.24;61.68
61963;BME280;47927;42.646;23.096;2022-09-03T03:04:50;92208.56;;;18.17;61.71
61963;BME280;47927;42.646;23.096;2022-09-03T03:07:16;92201.44;;;18.17;61.39
61963;BME280;47927;42.646;23.096;2022-09-03T03:09:41;92205.41;;;18.26;61.06
61963;BME280;47927;42.646;23.096;2022-09-03T03:12:07;92194.19;;;18.21;60.72
61963;BME280;47927;42.646;23.096;2022-09-03T03:14:34;92203.56;;;18.22;61.53
61963;BME280;47927;42.646;23.096;2022-09-03T03:17:00;92199.31;;;18.29;60.92
61963;BME280;47927;42.646;23.096;2022-09-03T03:19:25;92207.44;;;18.38;61.10
61963;BME280;47927;42.646;23.096;2022-09-03T03:21:51;92201.94;;;18.29;61.19
61963;BME280;47927;42.646;23.096;2022-09-03T03:24:16;92196.81;;;18.21;61.06
61963;BME280;47927;42.646;23.096;2022-09-03T03:26:42;92203.31;;;18.37;60.74
61963;BME280;47927;42.646;23.096;2022-09-03T03:29:14;92201.34;;;18.41;60.53
61963;BME280;47927;42.646;23.096;2022-09-03T03:31:41;92192.69;;;18.40;60.73
61963;BME280;47927;42.646;23.096;2022-09-03T03:34:06;92191.94;;;18.40;60.22
61963;BME280;47927;42.646;23.096;2022-09-03T03:36:32;92193.44;;;18.41;60.36
61963;BME280;47927;42.646;23.096;2022-09-03T03:38:59;92200.34;;;18.15;60.99
61963;BME280;47927;42.646;23.096;2022-09-03T03:41:30;92198.75;;;17.77;61.58
61963;BME280;47927;42.646;23.096;2022-09-03T03:43:58;92201.59;;;17.63;62.74
61963;BME280;47927;42.646;23.096;2022-09-03T03:46:28;92208.22;;;17.95;61.93
61963;BME280;47927;42.646;23.096;2022-09-03T03:48:54;92199.44;;;18.02;61.60
61963;BME280;47927;42.646;23.096;2022-09-03T03:51:20;92203.03;;;18.11;61.30
61963;BME280;47927;42.646;23.096;2022-09-03T03:53:45;92210.53;;;17.93;61.55
61963;BME280;47927;42.646;23.096;2022-09-03T03:56:13;92205.94;;;17.97;61.45
61963;BME280;47927;42.646;23.096;2022-09-03T03:58:40;92195.59;;;18.06;61.24
61963;BME280;47927;42.646;23.096;2022-09-03T04:01:14;92206.16;;;18.06;61.23
61963;BME280;47927;42.646;23.096;2022-09-03T04:03:40;92202.16;;;17.98;61.34
61963;BME280;47927;42.646;23.096;2022-09-03T04:06:07;92201.38;;;17.77;62.02
61963;BME280;47927;42.646;23.096;2022-09-03T04:08:35;92193.81;;;17.80;62.09
61963;BME280;47927;42.646;23.096;2022-09-03T04:11:02;92201.34;;;18.01;61.57
61963;BME280;47927;42.646;23.096;2022-09-03T04:13:47;92205.94;;;18.17;61.11
61963;BME280;47927;42.646;23.096;2022-09-03T04:16:21;92203.78;;;18.32;61.51
61963;BME280;47927;42.646;23.096;2022-09-03T04:19:06;92214.00;;;18.30;61.12
61963;BME280;47927;42.646;23.096;2022-09-03T04:21:31;92214.53;;;18.21;61.26
61963;BME280;47927;42.646;23.096;2022-09-03T04:23:57;92206.22;;;18.22;61.46
61963;BME280;47927;42.646;23.096;2022-09-03T04:26:32;92224.59;;;18.46;61.40
61963;BME280;47927;42.646;23.096;2022-09-03T04:28:59;92232.06;;;18.51;61.08
61963;BME280;47927;42.646;23.096;2022-09-03T04:31:25;92230.97;;;18.49;60.74
61963;BME280;47927;42.646;23.096;2022-09-03T04:33:51;92241.06;;;18.54;61.09
61963;BME280;47927;42.646;23.096;2022-09-03T04:36:18;92238.69;;;18.59;60.83
61963;BME280;47927;42.646;23.096;2022-09-03T04:38:46;92249.16;;;18.63;60.89
61963;BME280;47927;42.646;23.096;2022-09-03T04:41:15;92255.44;;;18.69;60.90
61963;BME280;47927;42.646;23.096;2022-09-03T04:43:41;92252.47;;;18.67;60.61
61963;BME280;47927;42.646;23.096;2022-09-03T04:46:08;92258.06;;;18.29;60.67
61963;BME280;47927;42.646;23.096;2022-09-03T04:48:36;92260.00;;;18.05;61.18
61963;BME280;47927;42.646;23.096;2022-09-03T04:51:04;92254.75;;;18.05;61.39
61963;BME280;47927;42.646;23.096;2022-09-03T04:53:37;92244.59;;;18.04;61.72
61963;BME280;47927;42.646;23.096;2022-09-03T04:56:20;92264.22;;;18.22;61.20
61963;BME280;47927;42.646;23.096;2022-09-03T04:58:47;92259.03;;;18.39;60.78
61963;BME280;47927;42.646;23.096;2022-09-03T05:01:18;92274.25;;;18.51;60.61
61963;BME280;47927;42.646;23.096;2022-09-03T05:03:44;92276.75;;;18.58;60.53
61963;BME280;47927;42.646;23.096;2022-09-03T05:06:10;92277.84;;;18.61;60.08
61963;BME280;47927;42.646;23.096;2022-09-03T05:08:38;92270.28;;;18.63;60.01
61963;BME280;47927;42.646;23.096;2022-09-03T05:11:06;92272.16;;;18.62;60.15
61963;BME280;47927;42.646;23.096;2022-09-03T05:13:33;92276.22;;;18.47;60.69
61963;BME280;47927;42.646;23.096;2022-09-03T05:15:59;92266.91;;;18.62;60.13
61963;BME280;47927;42.646;23.096;2022-09-03T05:18:25;92269.59;;;18.79;59.54
61963;BME280;47927;42.646;23.096;2022-09-03T05:21:02;92261.81;;;18.72;59.78
61963;BME280;47927;42.646;23.096;2022-09-03T05:23:29;92270.53;;;18.68;59.76
61963;BME280;47927;42.646;23.096;2022-09-03T05:26:00;92272.97;;;18.79;59.39
61963;BME280;47927;42.646;23.096;2022-09-03T05:28:28;92271.47;;;18.98;59.38
61963;BME280;47927;42.646;23.096;2022-09-03T05:30:59;92276.69;;;19.02;58.64
61963;BME280;47927;42.646;23.096;2022-09-03T05:33:24;92278.91;;;19.03;58.73
61963;BME280;47927;42.646;23.096;2022-09-03T05:35:50;92284.63;;;19.18;58.03
61963;BME280;47927;42.646;23.096;2022-09-03T05:38:18;92278.69;;;19.14;58.17
61963;BME280;47927;42.646;23.096;2022-09-03T05:40:43;92285.06;;;19.17;58.91
61963;BME280;47927;42.646;23.096;2022-09-03T05:43:09;92276.84;;;19.80;57.18
61963;BME280;47927;42.646;23.096;2022-09-03T05:45:34;92280.91;;;20.30;54.91
61963;BME280;47927;42.646;23.096;2022-09-03T05:48:01;92273.78;;;20.14;54.57
61963;BME280;47927;42.646;23.096;2022-09-03T05:50:27;92275.28;;;20.28;54.48
61963;BME280;47927;42.646;23.096;2022-09-03T05:52:53;92277.16;;;20.73;52.76
61963;BME280;47927;42.646;23.096;2022-09-03T05:55:18;92263.75;;;20.93;53.76
61963;BME280;47927;42.646;23.096;2022-09-03T05:57:44;92272.25;;;21.26;52.89
61963;BME280;47927;42.646;23.096;2022-09-03T06:00:10;92281.38;;;21.25;52.48
61963;BME280;47927;42.646;23.096;2022-09-03T06:02:37;92281.47;;;21.34;53.15
61963;BME280;47927;42.646;23.096;2022-09-03T06:05:03;92279.78;;;21.28;52.23
61963;BME280;47927;42.646;23.096;2022-09-03T06:07:29;92281.91;;;21.20;51.86
61963;BME280;47927;42.646;23.096;2022-09-03T06:09:55;92281.44;;;20.96;52.70
61963;BME280;47927;42.646;23.096;2022-09-03T06:12:21;92284.91;;;20.67;53.13
61963;BME280;47927;42.646;23.096;2022-09-03T06:14:46;92285.38;;;20.91;52.32
61963;BME280;47927;42.646;23.096;2022-09-03T06:17:12;92283.00;;;20.52;53.06
61963;BME280;47927;42.646;23.096;2022-09-03T06:19:39;92284.72;;;20.87;53.06
61963;BME280;47927;42.646;23.096;2022-09-03T06:22:04;92278.63;;;21.03;51.92
61963;BME280;47927;42.646;23.096;2022-09-03T06:24:30;92289.09;;;21.07;52.25
61963;BME280;47927;42.646;23.096;2022-09-03T06:26:56;92294.91;;;21.02;52.41
61963;BME280;47927;42.646;23.096;2022-09-03T06:29:21;92283.13;;;20.77;53.25
61963;BME280;47927;42.646;23.096;2022-09-03T06:31:47;92287.41;;;21.13;51.88
61963;BME280;47927;42.646;23.096;2022-09-03T06:34:13;92274.06;;;21.68;50.27
61963;BME280;47927;42.646;23.096;2022-09-03T06:36:39;92287.09;;;22.35;49.31
61963;BME280;47927;42.646;23.096;2022-09-03T06:39:05;92287.63;;;22.43;48.98
61963;BME280;47927;42.646;23.096;2022-09-03T06:41:31;92293.94;;;22.23;48.43
61963;BME280;47927;42.646;23.096;2022-09-03T06:44:04;92283.38;;;21.08;50.62
61963;BME280;47927;42.646;23.096;2022-09-03T06:46:37;92294.63;;;21.12;51.81
61963;BME280;47927;42.646;23.096;2022-09-03T06:49:03;92303.19;;;20.45;52.75
61963;BME280;47927;42.646;23.096;2022-09-03T06:51:31;92299.97;;;20.83;52.78
61963;BME280;47927;42.646;23.096;2022-09-03T06:54:02;92300.00;;;21.09;51.00
61963;BME280;47927;42.646;23.096;2022-09-03T06:56:29;92302.56;;;21.12;51.49
61963;BME280;47927;42.646;23.096;2022-09-03T06:59:02;92315.50;;;21.23;50.59
61963;BME280;47927;42.646;23.096;2022-09-03T07:01:30;92316.03;;;21.31;50.71
61963;BME280;47927;42.646;23.096;2022-09-03T07:03:58;92315.41;;;21.27;51.72
61963;BME280;47927;42.646;23.096;2022-09-03T07:06:43;92316.88;;;21.28;51.04
61963;BME280;47927;42.646;23.096;2022-09-03T07:09:11;92319.66;;;21.24;51.77
61963;BME280;47927;42.646;23.096;2022-09-03T07:11:37;92312.28;;;21.03;51.98
61963;BME280;47927;42.646;23.096;2022-09-03T07:14:29;92309.72;;;20.86;52.09
61963;BME280;47927;42.646;23.096;2022-09-03T07:16:55;92322.72;;;20.81;52.26
61963;BME280;47927;42.646;23.096;2022-09-03T07:19:20;92321.38;;;20.60;52.94
61963;BME280;47927;42.646;23.096;2022-09-03T07:21:46;92326.81;;;20.69;52.11
61963;BME280;47927;42.646;23.096;2022-09-03T07:24:11;92336.38;;;20.50;52.70
61963;BME280;47927;42.646;23.096;2022-09-03T07:26:39;92332.50;;;20.38;53.07
61963;BME280;47927;42.646;23.096;2022-09-03T07:29:09;92338.56;;;20.68;52.92
61963;BME280;47927;42.646;23.096;2022-09-03T07:31:38;92345.44;;;20.94;52.63
61963;BME280;47927;42.646;23.096;2022-09-03T07:34:06;92344.38;;;21.05;51.83
61963;BME280;47927;42.646;23.096;2022-09-03T07:36:40;92344.00;;;21.32;50.67
61963;BME280;47927;42.646;23.096;2022-09-03T07:39:07;92336.31;;;21.37;50.40
61963;BME280;47927;42.646;23.096;2022-09-03T07:41:33;92339.22;;;21.14;51.33
61963;BME280;47927;42.646;23.096;2022-09-03T07:43:59;92338.22;;;21.50;51.02
61963;BME280;47927;42.646;23.096;2022-09-03T07:46:32;92342.25;;;21.67;50.08
61963;BME280;47927;42.646;23.096;2022-09-03T07:48:59;92352.22;;;21.89;50.42
61963;BME280;47927;42.646;23.096;2022-09-03T07:51:28;92349.09;;;22.16;49.43
61963;BME280;47927;42.646;23.096;2022-09-03T07:53:59;92347.84;;;22.20;49.03
61963;BME280;47927;42.646;23.096;2022-09-03T07:56:27;92354.13;;;22.14;49.19
61963;BME280;47927;42.646;23.096;2022-09-03T07:58:55;92344.66;;;22.25;47.85
61963;BME280;47927;42.646;23.096;2022-09-03T08:01:22;92356.63;;;22.43;47.74
61963;BME280;47927;42.646;23.096;2022-09-03T08:03:50;92357.31;;;22.56;47.57
61963;BME280;47927;42.646;23.096;2022-09-03T08:06:17;92356.47;;;22.59;47.54
61963;BME280;47927;42.646;23.096;2022-09-03T08:08:43;92362.09;;;22.61;47.83
61963;BME280;47927;42.646;23.096;2022-09-03T08:11:14;92354.34;;;22.54;47.71
61963;BME280;47927;42.646;23.096;2022-09-03T08:13:55;92366.59;;;22.73;47.55
61963;BME280;47927;42.646;23.096;2022-09-03T08:16:27;92359.56;;;22.80;46.64
61963;BME280;47927;42.646;23.096;2022-09-03T08:18:53;92353.66;;;22.75;47.54
61963;BME280;47927;42.646;23.096;2022-09-03T08:21:19;92355.16;;;23.20;46.87
61963;BME280;47927;42.646;23.096;2022-09-03T08:23:46;92351.41;;;24.21;45.06
61963;BME280;47927;42.646;23.096;2022-09-03T08:26:14;92352.97;;;25.05;42.07
61963;BME280;47927;42.646;23.096;2022-09-03T08:28:40;92347.75;;;25.38;41.41
61963;BME280;47927;42.646;23.096;2022-09-03T08:31:12;92339.81;;;25.62;41.09
61963;BME280;47927;42.646;23.096;2022-09-03T08:33:42;92341.13;;;26.09;39.92
61963;BME280;47927;42.646;23.096;2022-09-03T08:36:14;92347.19;;;26.81;38.18
61963;BME280;47927;42.646;23.096;2022-09-03T08:38:42;92357.09;;;28.44;35.63
61963;BME280;47927;42.646;23.096;2022-09-03T08:46:37;92354.69;;;29.13;33.98
61963;BME280;47927;42.646;23.096;2022-09-03T08:49:05;92349.56;;;28.48;35.26
61963;BME280;47927;42.646;23.096;2022-09-03T08:51:31;92345.03;;;27.84;36.83
61963;BME280;47927;42.646;23.096;2022-09-03T08:54:03;92340.47;;;27.40;37.12
61963;BME280;47927;42.646;23.096;2022-09-03T08:56:30;92344.84;;;27.13;38.03
61963;BME280;47927;42.646;23.096;2022-09-03T08:58:59;92343.38;;;26.73;38.07
61963;BME280;47927;42.646;23.096;2022-09-03T09:04:34;92351.53;;;26.94;37.59
61963;BME280;47927;42.646;23.096;2022-09-03T09:10:02;92345.63;;;27.29;37.62
61963;BME280;47927;42.646;23.096;2022-09-03T09:18:17;92347.97;;;30.61;31.56
61963;BME280;47927;42.646;23.096;2022-09-03T09:23:36;92358.63;;;30.02;31.95
61963;BME280;47927;42.646;23.096;2022-09-03T09:26:07;92360.06;;;29.65;32.91
61963;BME280;47927;42.646;23.096;2022-09-03T09:28:36;92368.31;;;29.62;32.76
61963;BME280;47927;42.646;23.096;2022-09-03T09:31:04;92363.50;;;29.40;33.17
61963;BME280;47927;42.646;23.096;2022-09-03T09:33:31;92360.88;;;28.99;33.34
61963;BME280;47927;42.646;23.096;2022-09-03T09:36:04;92360.34;;;29.15;34.34
61963;BME280;47927;42.646;23.096;2022-09-03T09:38:35;92375.69;;;29.41;33.14
61963;BME280;47927;42.646;23.096;2022-09-03T09:41:08;92367.94;;;30.12;31.91
61963;BME280;47927;42.646;23.096;2022-09-03T09:43:35;92375.53;;;31.10;30.91
61963;BME280;47927;42.646;23.096;2022-09-03T09:46:08;92378.84;;;31.99;29.47
61963;BME280;47927;42.646;23.096;2022-09-03T09:48:38;92377.03;;;33.22;26.35
61963;BME280;47927;42.646;23.096;2022-09-03T09:51:19;92371.34;;;33.67;25.12
61963;BME280;47927;42.646;23.096;2022-09-03T09:53:45;92374.38;;;34.18;25.77
61963;BME280;47927;42.646;23.096;2022-09-03T09:56:24;92375.47;;;34.34;23.61
61963;BME280;47927;42.646;23.096;2022-09-03T09:59:07;92380.00;;;33.12;26.52
61963;BME280;47927;42.646;23.096;2022-09-03T10:01:35;92371.47;;;32.11;26.69
61963;BME280;47927;42.646;23.096;2022-09-03T10:04:21;92374.66;;;32.04;27.89
61963;BME280;47927;42.646;23.096;2022-09-03T10:07:02;92368.25;;;32.29;26.19
61963;BME280;47927;42.646;23.096;2022-09-03T10:09:30;92371.16;;;31.30;28.09
61963;BME280;47927;42.646;23.096;2022-09-03T10:14:46;92369.44;;;32.56;26.81
61963;BME280;47927;42.646;23.096;2022-09-03T10:17:28;92368.53;;;33.48;25.49
61963;BME280;47927;42.646;23.096;2022-09-03T10:23:14;92383.25;;;34.43;23.63
61963;BME280;47927;42.646;23.096;2022-09-03T10:28:16;92385.91;;;34.48;24.74
61963;BME280;47927;42.646;23.096;2022-09-03T10:33:51;92373.69;;;33.46;25.99
61963;BME280;47927;42.646;23.096;2022-09-03T10:36:33;92371.00;;;33.40;24.76
61963;BME280;47927;42.646;23.096;2022-09-03T10:39:14;92372.06;;;33.67;24.38
61963;BME280;47927;42.646;23.096;2022-09-03T10:41:48;92377.06;;;33.57;24.71
61963;BME280;47927;42.646;23.096;2022-09-03T10:50:14;92366.81;;;33.03;25.48
61963;BME280;47927;42.646;23.096;2022-09-03T10:55:20;92360.97;;;32.88;25.86
61963;BME280;47927;42.646;23.096;2022-09-03T10:57:53;92363.03;;;32.59;26.01
61963;BME280;47927;42.646;23.096;2022-09-03T11:00:24;92368.25;;;32.46;25.56
61963;BME280;47927;42.646;23.096;2022-09-03T11:08:24;92378.09;;;31.93;28.05
61963;BME280;47927;42.646;23.096;2022-09-03T11:11:15;92371.63;;;31.23;26.88
61963;BME280;47927;42.646;23.096;2022-09-03T11:14:27;92372.94;;;31.55;26.61
61963;BME280;47927;42.646;23.096;2022-09-03T11:16:34;92374.84;;;31.32;26.19
61963;BME280;47927;42.646;23.096;2022-09-03T11:19:05;92365.47;;;31.00;27.83
61963;BME280;47927;42.646;23.096;2022-09-03T11:21:31;92368.63;;;30.93;27.99
61963;BME280;47927;42.646;23.096;2022-09-03T11:24:21;92371.56;;;30.89;27.09
61963;BME280;47927;42.646;23.096;2022-09-03T11:26:54;92361.28;;;30.39;27.49
61963;BME280;47927;42.646;23.096;2022-09-03T11:29:49;92363.94;;;30.33;28.69
61963;BME280;47927;42.646;23.096;2022-09-03T11:32:22;92366.00;;;30.50;29.83
61963;BME280;47927;42.646;23.096;2022-09-03T11:34:52;92370.38;;;30.47;29.82
61963;BME280;47927;42.646;23.096;2022-09-03T11:37:29;92366.75;;;30.56;29.77
61963;BME280;47927;42.646;23.096;2022-09-03T11:40:11;92371.47;;;29.60;29.76
61963;BME280;47927;42.646;23.096;2022-09-03T11:42:40;92369.69;;;29.51;31.07
61963;BME280;47927;42.646;23.096;2022-09-03T11:47:52;92379.94;;;29.27;30.82
61963;BME280;47927;42.646;23.096;2022-09-03T11:52:51;92369.56;;;28.68;32.11
61963;BME280;47927;42.646;23.096;2022-09-03T11:55:29;92374.28;;;28.58;31.80
61963;BME280;47927;42.646;23.096;2022-09-03T11:57:56;92362.44;;;28.44;32.75
61963;BME280;47927;42.646;23.096;2022-09-03T12:00:23;92364.72;;;28.16;32.98
61963;BME280;47927;42.646;23.096;2022-09-03T12:02:54;92361.25;;;27.95;34.07
61963;BME280;47927;42.646;23.096;2022-09-03T12:14:39;92364.34;;;27.88;34.78
61963;BME280;47927;42.646;23.096;2022-09-03T12:20:11;92355.78;;;28.04;33.54
61963;BME280;47927;42.646;23.096;2022-09-03T12:22:37;92354.31;;;28.03;33.71
61963;BME280;47927;42.646;23.096;2022-09-03T12:25:13;92334.19;;;27.93;33.51
61963;BME280;47927;42.646;23.096;2022-09-03T12:27:41;92347.31;;;27.02;36.41
61963;BME280;47927;42.646;23.096;2022-09-03T12:30:21;92352.16;;;26.89;36.24
61963;BME280;47927;42.646;23.096;2022-09-03T12:32:47;92341.81;;;26.19;37.63
61963;BME280;47927;42.646;23.096;2022-09-03T12:35:16;92343.63;;;26.36;36.88
61963;BME280;47927;42.646;23.096;2022-09-03T12:37:43;92351.41;;;26.25;37.15
61963;BME280;47927;42.646;23.096;2022-09-03T12:40:27;92356.84;;;26.07;38.49
61963;BME280;47927;42.646;23.096;2022-09-03T12:42:54;92355.09;;;25.61;38.48
61963;BME280;47927;42.646;23.096;2022-09-03T12:45:22;92343.81;;;26.00;37.75
61963;BME280;47927;42.646;23.096;2022-09-03T12:47:49;92342.09;;;25.87;38.60
61963;BME280;47927;42.646;23.096;2022-09-03T12:50:22;92336.66;;;25.82;37.81
61963;BME280;47927;42.646;23.096;2022-09-03T12:52:52;92344.69;;;25.63;38.53
61963;BME280;47927;42.646;23.096;2022-09-03T12:55:38;92333.06;;;25.42;39.34
61963;BME280;47927;42.646;23.096;2022-09-03T13:00:37;92325.09;;;25.85;40.38
61963;BME280;47927;42.646;23.096;2022-09-03T13:03:08;92334.84;;;25.79;38.90
61963;BME280;47927;42.646;23.096;2022-09-03T13:05:47;92328.84;;;25.17;40.48
61963;BME280;47927;42.646;23.096;2022-09-03T13:08:18;92321.13;;;24.92;40.33
61963;BME280;47927;42.646;23.096;2022-09-03T13:10:50;92330.78;;;24.43;40.24
61963;BME280;47927;42.646;23.096;2022-09-03T13:13:24;92328.41;;;24.82;41.44
61963;BME280;47927;42.646;23.096;2022-09-03T13:18:46;92312.69;;;25.02;40.16
61963;BME280;47927;42.646;23.096;2022-09-03T13:21:47;92314.03;;;24.98;40.75
61963;BME280;47927;42.646;23.096;2022-09-03T13:24:18;92320.06;;;25.35;40.48
61963;BME280;47927;42.646;23.096;2022-09-03T13:32:29;92317.66;;;25.80;38.20
61963;BME280;47927;42.646;23.096;2022-09-03T13:35:08;92309.28;;;25.63;38.74
61963;BME280;47927;42.646;23.096;2022-09-03T13:37:51;92312.50;;;25.34;39.77
61963;BME280;47927;42.646;23.096;2022-09-03T13:40:34;92302.56;;;25.34;39.82
61963;BME280;47927;42.646;23.096;2022-09-03T13:43:07;92307.13;;;25.52;39.75
61963;BME280;47927;42.646;23.096;2022-09-03T13:45:45;92301.06;;;25.42;38.77
61963;BME280;47927;42.646;23.096;2022-09-03T13:48:19;92311.56;;;25.55;39.45
61963;BME280;47927;42.646;23.096;2022-09-03T13:57:04;92309.19;;;25.48;39.26
61963;BME280;47927;42.646;23.096;2022-09-03T13:59:51;92310.69;;;25.40;38.72
61963;BME280;47927;42.646;23.096;2022-09-03T14:02:53;92318.00;;;25.21;39.65
61963;BME280;47927;42.646;23.096;2022-09-03T14:10:51;92308.56;;;24.83;40.27
61963;BME280;47927;42.646;23.096;2022-09-03T14:18:59;92311.63;;;24.08;41.74
61963;BME280;47927;42.646;23.096;2022-09-03T14:21:30;92314.97;;;23.90;42.70
61963;BME280;47927;42.646;23.096;2022-09-03T14:26:33;92311.81;;;24.32;41.26
61963;BME280;47927;42.646;23.096;2022-09-03T14:34:42;92313.38;;;23.93;42.58
61963;BME280;47927;42.646;23.096;2022-09-03T14:40:29;92321.13;;;24.37;41.26
61963;BME280;47927;42.646;23.096;2022-09-03T14:43:01;92325.00;;;24.82;40.83
61963;BME280;47927;42.646;23.096;2022-09-03T14:51:25;92337.19;;;24.05;41.98
61963;BME280;47927;42.646;23.096;2022-09-03T14:56:53;92326.69;;;23.61;43.03
61963;BME280;47927;42.646;23.096;2022-09-03T14:59:38;92320.47;;;23.24;43.67
61963;BME280;47927;42.646;23.096;2022-09-03T15:05:05;92326.34;;;23.50;43.92
61963;BME280;47927;42.646;23.096;2022-09-03T15:07:57;92330.19;;;23.49;44.23
61963;BME280;47927;42.646;23.096;2022-09-03T15:10:29;92331.75;;;23.69;43.54
61963;BME280;47927;42.646;23.096;2022-09-03T15:13:16;92333.25;;;23.70;43.39
61963;BME280;47927;42.646;23.096;2022-09-03T15:35:08;92328.94;;;22.31;46.47
61963;BME280;47927;42.646;23.096;2022-09-03T15:37:52;92333.28;;;22.38;46.45
61963;BME280;47927;42.646;23.096;2022-09-03T15:40:33;92342.94;;;22.66;45.54
61963;BME280;47927;42.646;23.096;2022-09-03T15:43:11;92337.34;;;22.51;46.14
61963;BME280;47927;42.646;23.096;2022-09-03T15:48:28;92339.19;;;21.69;47.95
61963;BME280;47927;42.646;23.096;2022-09-03T15:51:08;92350.63;;;21.91;47.55
61963;BME280;47927;42.646;23.096;2022-09-03T15:54:00;92341.69;;;21.98;47.42
61963;BME280;47927;42.646;23.096;2022-09-03T15:56:38;92346.03;;;22.30;46.68
61963;BME280;47927;42.646;23.096;2022-09-03T16:01:39;92354.13;;;22.01;47.18
61963;BME280;47927;42.646;23.096;2022-09-03T16:09:21;92358.59;;;21.78;47.76
61963;BME280;47927;42.646;23.096;2022-09-03T16:12:07;92362.41;;;21.65;47.62
61963;BME280;47927;42.646;23.096;2022-09-03T16:14:40;92366.88;;;21.55;48.40
61963;BME280;47927;42.646;23.096;2022-09-03T16:17:32;92365.19;;;21.19;48.81
61963;BME280;47927;42.646;23.096;2022-09-03T16:20:06;92374.75;;;21.29;49.06
61963;BME280;47927;42.646;23.096;2022-09-03T16:25:13;92373.66;;;21.14;49.44
61963;BME280;47927;42.646;23.096;2022-09-03T16:28:04;92369.03;;;21.31;49.48
61963;BME280;47927;42.646;23.096;2022-09-03T16:41:35;92386.25;;;21.39;48.98
61963;BME280;47927;42.646;23.096;2022-09-03T16:44:29;92371.94;;;21.36;48.43
61963;BME280;47927;42.646;23.096;2022-09-03T17:00:21;92387.16;;;21.32;48.82
61963;BME280;47927;42.646;23.096;2022-09-03T17:05:54;92389.59;;;21.27;48.25
61963;BME280;47927;42.646;23.096;2022-09-03T17:08:47;92394.63;;;21.08;48.44
61963;BME280;47927;42.646;23.096;2022-09-03T17:11:22;92399.00;;;21.15;48.32
61963;BME280;47927;42.646;23.096;2022-09-03T17:17:07;92396.41;;;21.41;47.72
61963;BME280;47927;42.646;23.096;2022-09-03T17:24:57;92401.56;;;21.31;47.21
61963;BME280;47927;42.646;23.096;2022-09-03T17:27:49;92405.22;;;21.37;47.14